BAW9SW KSAN-EGLL
Flight info
| Callsign | BAW9SW |
|---|---|
| Flight time | N/A |
| Altitude | 33000 |
| Route | ZZOOO4 MTBAL DCT EED DCT KD45Q DCT KD57U DCT KD72A DCT ONL DCT KP84G DCT KP90K/N0486F350 DCT SSM DCT YVO DCT TABRU Q910 YNA DCT ALLRY/M084F350 DCT 51N050W 52N040W 52N030W 52N020W DCT DINIM DCT ELSOX DCT LESLU/N0481F350 DCT FONZU DCT ELRIP DCT OTMET |
| Aircraft | B77W/H-SDE1E2E3FGHIJ2J3J4J5M1RWXY/LB1D1 |
Departure
| Time | 2026-05-05 05:01 |
|---|---|
| Airport | San Diego International Airport (KSAN) |
Arrival
| Time | N/A |
|---|---|
| Airport | London Heathrow Airport (EGLL) |
| Time | Latitude | Longitude | Altitude | Speed | Heading |
|---|---|---|---|---|---|
| 2026-05-05 04:18 | 32.73263 | -117.20708 | 33 ft | 0 kts | 192° |
| 2026-05-05 04:48 | 32.73270 | -117.20706 | 33 ft | 2 kts | 192° |
| 2026-05-05 04:48 | 32.73284 | -117.20703 | 33 ft | 2 kts | 192° |
| 2026-05-05 04:49 | 32.73298 | -117.20699 | 33 ft | 0 kts | 192° |
| 2026-05-05 04:49 | 32.73309 | -117.20697 | 33 ft | 2 kts | 191° |
| 2026-05-05 04:49 | 32.73323 | -117.20694 | 33 ft | 2 kts | 187° |
| 2026-05-05 04:49 | 32.73338 | -117.20692 | 33 ft | 2 kts | 185° |
| 2026-05-05 04:50 | 32.73353 | -117.20691 | 33 ft | 2 kts | 182° |
| 2026-05-05 04:50 | 32.73369 | -117.20690 | 33 ft | 2 kts | 180° |
| 2026-05-05 04:50 | 32.73376 | -117.20691 | 33 ft | 0 kts | 179° |
| 2026-05-05 04:53 | 32.73357 | -117.20687 | 33 ft | 4 kts | 159° |
| 2026-05-05 04:53 | 32.73339 | -117.20667 | 33 ft | 4 kts | 122° |
| 2026-05-05 04:53 | 32.73330 | -117.20641 | 33 ft | 3 kts | 103° |
| 2026-05-05 04:53 | 32.73331 | -117.20599 | 33 ft | 6 kts | 71° |
| 2026-05-05 04:54 | 32.73368 | -117.20564 | 33 ft | 3 kts | 10° |
| 2026-05-05 04:54 | 32.73393 | -117.20559 | 33 ft | 4 kts | 10° |
| 2026-05-05 04:54 | 32.73432 | -117.20551 | 33 ft | 6 kts | 8° |
| 2026-05-05 04:54 | 32.73484 | -117.20528 | 33 ft | 9 kts | 34° |
| 2026-05-05 04:55 | 32.73528 | -117.20461 | 33 ft | 12 kts | 69° |
| 2026-05-05 04:55 | 32.73520 | -117.20362 | 33 ft | 15 kts | 105° |
| 2026-05-05 04:55 | 32.73520 | -117.20248 | 33 ft | 13 kts | 60° |
| 2026-05-05 04:55 | 32.73533 | -117.20119 | 33 ft | 20 kts | 102° |
| 2026-05-05 04:56 | 32.73488 | -117.19934 | 33 ft | 25 kts | 107° |
| 2026-05-05 04:56 | 32.73442 | -117.19750 | 33 ft | 22 kts | 105° |
| 2026-05-05 04:56 | 32.73397 | -117.19563 | 33 ft | 24 kts | 106° |
| 2026-05-05 04:56 | 32.73348 | -117.19362 | 33 ft | 25 kts | 106° |
| 2026-05-05 04:57 | 32.73298 | -117.19157 | 33 ft | 26 kts | 107° |
| 2026-05-05 04:57 | 32.73247 | -117.18944 | 33 ft | 27 kts | 106° |
| 2026-05-05 04:57 | 32.73194 | -117.18726 | 33 ft | 27 kts | 106° |
| 2026-05-05 04:57 | 32.73141 | -117.18504 | 33 ft | 27 kts | 106° |
| 2026-05-05 04:58 | 32.73090 | -117.18295 | 33 ft | 25 kts | 106° |
| 2026-05-05 04:58 | 32.73042 | -117.18097 | 33 ft | 24 kts | 105° |
| 2026-05-05 04:58 | 32.72995 | -117.17909 | 33 ft | 22 kts | 106° |
| 2026-05-05 04:58 | 32.72963 | -117.17775 | 33 ft | 11 kts | 106° |
| 2026-05-05 04:59 | 32.72950 | -117.17690 | 33 ft | 9 kts | 88° |
| 2026-05-05 04:59 | 32.72966 | -117.17619 | 33 ft | 8 kts | 64° |
| 2026-05-05 04:59 | 32.73003 | -117.17598 | 33 ft | 5 kts | 339° |
| 2026-05-05 04:59 | 32.73024 | -117.17625 | 33 ft | 4 kts | 303° |
| 2026-05-05 05:00 | 32.73038 | -117.17660 | 33 ft | 5 kts | 291° |
| 2026-05-05 05:00 | 32.73045 | -117.17690 | 33 ft | 0 kts | 286° |
| 2026-05-05 05:00 | 32.73066 | -117.17770 | 33 ft | 27 kts | 287° |
| 2026-05-05 05:01 | 32.73189 | -117.18278 | 33 ft | 99 kts | 285° |
| 2026-05-05 05:01 | 32.73439 | -117.19305 | 34 ft | 161 kts | 286° |
| 2026-05-05 05:01 | 32.73791 | -117.20753 | 409 ft | 189 kts | 285° |
| 2026-05-05 05:01 | 32.74128 | -117.22189 | 1266 ft | 183 kts | 285° |
| 2026-05-05 05:02 | 32.74495 | -117.23717 | 1635 ft | 199 kts | 285° |
| 2026-05-05 05:02 | 32.74897 | -117.25368 | 1994 ft | 214 kts | 285° |
| 2026-05-05 05:02 | 32.75318 | -117.27097 | 2487 ft | 222 kts | 285° |
| 2026-05-05 05:02 | 32.75744 | -117.28852 | 3096 ft | 224 kts | 285° |
| 2026-05-05 05:03 | 32.76186 | -117.30678 | 3618 ft | 234 kts | 285° |
| 2026-05-05 05:03 | 32.76604 | -117.32535 | 4282 ft | 239 kts | 277° |
| 2026-05-05 05:03 | 32.76481 | -117.34528 | 4776 ft | 249 kts | 250° |
| 2026-05-05 05:03 | 32.75567 | -117.36265 | 5513 ft | 251 kts | 224° |
| 2026-05-05 05:04 | 32.74063 | -117.37316 | 6277 ft | 254 kts | 198° |
| 2026-05-05 05:04 | 32.72290 | -117.37429 | 6965 ft | 263 kts | 171° |
| 2026-05-05 05:04 | 32.70600 | -117.36497 | 7545 ft | 275 kts | 141° |
| 2026-05-05 05:04 | 32.69337 | -117.34759 | 8257 ft | 279 kts | 129° |
| 2026-05-05 05:05 | 32.68196 | -117.32900 | 8940 ft | 282 kts | 129° |
| 2026-05-05 05:05 | 32.67043 | -117.31001 | 9585 ft | 285 kts | 129° |
| 2026-05-05 05:05 | 32.65873 | -117.29075 | 10246 ft | 288 kts | 129° |
| 2026-05-05 05:05 | 32.64708 | -117.27156 | 10858 ft | 291 kts | 129° |
| 2026-05-05 05:06 | 32.63580 | -117.25172 | 11478 ft | 296 kts | 118° |
| 2026-05-05 05:06 | 32.62989 | -117.22789 | 11954 ft | 309 kts | 102° |
| 2026-05-05 05:06 | 32.62715 | -117.20209 | 12203 ft | 327 kts | 98° |
| 2026-05-05 05:06 | 32.62477 | -117.17426 | 12494 ft | 344 kts | 98° |
| 2026-05-05 05:07 | 32.62224 | -117.14534 | 12780 ft | 361 kts | 98° |
| 2026-05-05 05:07 | 32.62137 | -117.11861 | 13015 ft | 378 kts | 89° |
| 2026-05-05 05:07 | 32.62528 | -117.08640 | 13313 ft | 396 kts | 77° |
| 2026-05-05 05:07 | 32.63391 | -117.05584 | 13588 ft | 412 kts | 70° |
| 2026-05-05 05:08 | 32.64448 | -117.02387 | 14056 ft | 422 kts | 69° |
| 2026-05-05 05:08 | 32.65513 | -116.99169 | 14642 ft | 429 kts | 70° |
| 2026-05-05 05:08 | 32.66359 | -116.95729 | 15384 ft | 430 kts | 81° |
| 2026-05-05 05:08 | 32.66696 | -116.92227 | 16029 ft | 432 kts | 89° |
| 2026-05-05 05:09 | 32.66803 | -116.88647 | 16688 ft | 435 kts | 90° |
| 2026-05-05 05:09 | 32.67143 | -116.85068 | 17298 ft | 442 kts | 80° |
| 2026-05-05 05:09 | 32.68010 | -116.81529 | 17884 ft | 449 kts | 70° |
| 2026-05-05 05:09 | 32.69374 | -116.78192 | 18461 ft | 455 kts | 59° |
| 2026-05-05 05:10 | 32.71116 | -116.75263 | 18958 ft | 460 kts | 50° |
| 2026-05-05 05:10 | 32.73477 | -116.72452 | 19481 ft | 466 kts | 38° |
| 2026-05-05 05:10 | 32.76173 | -116.70211 | 19919 ft | 472 kts | 27° |
| 2026-05-05 05:10 | 32.79154 | -116.68572 | 20448 ft | 474 kts | 18° |
| 2026-05-05 05:11 | 32.82232 | -116.67260 | 21002 ft | 477 kts | 17° |
| 2026-05-05 05:11 | 32.85398 | -116.65891 | 21541 ft | 482 kts | 17° |
| 2026-05-05 05:11 | 32.88575 | -116.64468 | 21974 ft | 488 kts | 17° |
| 2026-05-05 05:11 | 32.91734 | -116.63013 | 22483 ft | 493 kts | 18° |
| 2026-05-05 05:12 | 32.94921 | -116.61519 | 22953 ft | 498 kts | 18° |
| 2026-05-05 05:12 | 32.98157 | -116.59978 | 23425 ft | 502 kts | 18° |
| 2026-05-05 05:12 | 33.01440 | -116.58401 | 23789 ft | 508 kts | 18° |
| 2026-05-05 05:12 | 33.04706 | -116.56750 | 24102 ft | 515 kts | 20° |
| 2026-05-05 05:13 | 33.08009 | -116.55039 | 24366 ft | 523 kts | 20° |
| 2026-05-05 05:13 | 33.11362 | -116.53291 | 24794 ft | 526 kts | 19° |
| 2026-05-05 05:13 | 33.14750 | -116.51524 | 25174 ft | 530 kts | 20° |
| 2026-05-05 05:13 | 33.18176 | -116.49734 | 25437 ft | 537 kts | 19° |
| 2026-05-05 05:14 | 33.21605 | -116.47940 | 25735 ft | 543 kts | 19° |
| 2026-05-05 05:14 | 33.25131 | -116.46094 | 26041 ft | 548 kts | 20° |
| 2026-05-05 05:14 | 33.28631 | -116.44257 | 26328 ft | 554 kts | 19° |
| 2026-05-05 05:14 | 33.32169 | -116.42400 | 26714 ft | 557 kts | 20° |
| 2026-05-05 05:15 | 33.35679 | -116.40305 | 26989 ft | 567 kts | 27° |
| 2026-05-05 05:15 | 33.38985 | -116.37626 | 27267 ft | 576 kts | 36° |
| 2026-05-05 05:15 | 33.41976 | -116.34442 | 27525 ft | 583 kts | 45° |
| 2026-05-05 05:15 | 33.44631 | -116.30778 | 27744 ft | 589 kts | 54° |
| 2026-05-05 05:16 | 33.47048 | -116.26781 | 28035 ft | 593 kts | 57° |
| 2026-05-05 05:16 | 33.49425 | -116.22747 | 28405 ft | 596 kts | 57° |
| 2026-05-05 05:16 | 33.51833 | -116.18662 | 28628 ft | 602 kts | 57° |
| 2026-05-05 05:16 | 33.54250 | -116.14571 | 28852 ft | 608 kts | 57° |
| 2026-05-05 05:17 | 33.56684 | -116.10458 | 29141 ft | 612 kts | 57° |
| 2026-05-05 05:17 | 33.59164 | -116.06275 | 29542 ft | 614 kts | 56° |
| 2026-05-05 05:17 | 33.61843 | -116.02275 | 30014 ft | 616 kts | 49° |
| 2026-05-05 05:17 | 33.64697 | -115.98455 | 30547 ft | 615 kts | 49° |
| 2026-05-05 05:18 | 33.67542 | -115.94693 | 31080 ft | 613 kts | 48° |
| 2026-05-05 05:18 | 33.70420 | -115.90886 | 31613 ft | 611 kts | 48° |
| 2026-05-05 05:18 | 33.73263 | -115.87122 | 32111 ft | 609 kts | 48° |
| 2026-05-05 05:18 | 33.76093 | -115.83370 | 32562 ft | 608 kts | 49° |
| 2026-05-05 05:19 | 33.78921 | -115.79617 | 32916 ft | 609 kts | 49° |
| 2026-05-05 05:19 | 33.84608 | -115.72057 | 32955 ft | 610 kts | 48° |
| 2026-05-05 05:20 | 33.90271 | -115.64512 | 32941 ft | 609 kts | 48° |
| 2026-05-05 05:20 | 33.95955 | -115.56921 | 32928 ft | 610 kts | 49° |
| 2026-05-05 05:21 | 34.01629 | -115.49329 | 32923 ft | 609 kts | 48° |
| 2026-05-05 05:21 | 34.07257 | -115.41779 | 32922 ft | 609 kts | 48° |
| 2026-05-05 05:22 | 34.12944 | -115.34136 | 32889 ft | 610 kts | 49° |
| 2026-05-05 05:22 | 34.18583 | -115.26539 | 32884 ft | 610 kts | 49° |
| 2026-05-05 05:23 | 34.24226 | -115.18921 | 32871 ft | 609 kts | 49° |
| 2026-05-05 05:23 | 34.29877 | -115.11275 | 32878 ft | 611 kts | 49° |
| 2026-05-05 05:24 | 34.35519 | -115.03625 | 32884 ft | 610 kts | 49° |
| 2026-05-05 05:24 | 34.41142 | -114.95983 | 32893 ft | 609 kts | 49° |
| 2026-05-05 05:25 | 34.46744 | -114.88354 | 32896 ft | 609 kts | 49° |
| 2026-05-05 05:25 | 34.52295 | -114.80778 | 32900 ft | 609 kts | 49° |
| 2026-05-05 05:26 | 34.57736 | -114.73336 | 32909 ft | 609 kts | 49° |
| 2026-05-05 05:26 | 34.63340 | -114.65654 | 32909 ft | 609 kts | 49° |
| 2026-05-05 05:27 | 34.68930 | -114.57976 | 32915 ft | 609 kts | 49° |
| 2026-05-05 05:27 | 34.77331 | -114.46398 | 32905 ft | 607 kts | 50° |
| 2026-05-05 05:28 | 34.82597 | -114.38381 | 32920 ft | 606 kts | 52° |
| 2026-05-05 05:28 | 34.87771 | -114.30334 | 32915 ft | 607 kts | 53° |
| 2026-05-05 05:29 | 34.92970 | -114.22260 | 32931 ft | 607 kts | 53° |
| 2026-05-05 05:29 | 34.98164 | -114.14193 | 32948 ft | 606 kts | 53° |
| 2026-05-05 05:30 | 35.03380 | -114.06084 | 32957 ft | 607 kts | 53° |
| 2026-05-05 05:30 | 35.08579 | -113.97990 | 32975 ft | 606 kts | 53° |
| 2026-05-05 05:31 | 35.13734 | -113.89950 | 32976 ft | 605 kts | 53° |
| 2026-05-05 05:31 | 35.18972 | -113.81763 | 32971 ft | 608 kts | 53° |
| 2026-05-05 05:32 | 35.24113 | -113.73711 | 32973 ft | 604 kts | 53° |
| 2026-05-05 05:32 | 35.29305 | -113.65561 | 32983 ft | 608 kts | 52° |
| 2026-05-05 05:33 | 35.34457 | -113.57455 | 32993 ft | 605 kts | 52° |
| 2026-05-05 05:33 | 35.39647 | -113.49271 | 33000 ft | 606 kts | 52° |
| 2026-05-05 05:34 | 35.44791 | -113.41142 | 33008 ft | 606 kts | 53° |
| 2026-05-05 05:34 | 35.49921 | -113.33015 | 33003 ft | 606 kts | 53° |
| 2026-05-05 05:35 | 35.55067 | -113.24844 | 32994 ft | 605 kts | 53° |
| 2026-05-05 05:35 | 35.60231 | -113.16625 | 32994 ft | 606 kts | 53° |
| 2026-05-05 05:36 | 35.65338 | -113.08476 | 33001 ft | 605 kts | 52° |
| 2026-05-05 05:36 | 35.70469 | -113.00272 | 33002 ft | 605 kts | 53° |
| 2026-05-05 05:37 | 35.75548 | -112.92130 | 33008 ft | 603 kts | 52° |
| 2026-05-05 05:37 | 35.80641 | -112.83947 | 33021 ft | 605 kts | 53° |
| 2026-05-05 05:38 | 35.85739 | -112.75736 | 33029 ft | 603 kts | 53° |
| 2026-05-05 05:38 | 35.90806 | -112.67555 | 33030 ft | 602 kts | 52° |
| 2026-05-05 05:39 | 35.95900 | -112.59312 | 33033 ft | 602 kts | 53° |
| 2026-05-05 05:39 | 36.00930 | -112.51154 | 33038 ft | 601 kts | 52° |
| 2026-05-05 05:40 | 36.05980 | -112.42942 | 33049 ft | 602 kts | 52° |
| 2026-05-05 05:40 | 36.11018 | -112.34730 | 33036 ft | 597 kts | 53° |
| 2026-05-05 05:41 | 36.16014 | -112.26568 | 33014 ft | 599 kts | 53° |
| 2026-05-05 05:41 | 36.21048 | -112.18323 | 33019 ft | 599 kts | 52° |
| 2026-05-05 05:42 | 36.26025 | -112.10153 | 33007 ft | 595 kts | 52° |
| 2026-05-05 05:42 | 36.30990 | -112.01982 | 33022 ft | 595 kts | 52° |
| 2026-05-05 05:43 | 36.35968 | -111.93771 | 33032 ft | 594 kts | 52° |
| 2026-05-05 05:43 | 36.40912 | -111.85597 | 33024 ft | 597 kts | 53° |
| 2026-05-05 05:44 | 36.45849 | -111.77414 | 33020 ft | 593 kts | 52° |
| 2026-05-05 05:44 | 36.50808 | -111.69174 | 33033 ft | 595 kts | 53° |
| 2026-05-05 05:45 | 36.55730 | -111.60977 | 33053 ft | 591 kts | 53° |
| 2026-05-05 05:45 | 36.60650 | -111.52764 | 33033 ft | 592 kts | 54° |
| 2026-05-05 05:46 | 36.65523 | -111.44608 | 33020 ft | 591 kts | 54° |
| 2026-05-05 05:46 | 36.70433 | -111.36372 | 33018 ft | 590 kts | 54° |
| 2026-05-05 05:47 | 36.75291 | -111.28200 | 33008 ft | 588 kts | 54° |
| 2026-05-05 05:47 | 36.80159 | -111.19995 | 33018 ft | 588 kts | 55° |
| 2026-05-05 05:48 | 36.84996 | -111.11821 | 32978 ft | 582 kts | 54° |
| 2026-05-05 05:48 | 36.89817 | -111.03654 | 32995 ft | 587 kts | 54° |
| 2026-05-05 05:49 | 36.94649 | -110.95451 | 33005 ft | 584 kts | 56° |
| 2026-05-05 05:49 | 36.99451 | -110.87276 | 32989 ft | 586 kts | 55° |
| 2026-05-05 05:50 | 37.04236 | -110.79109 | 33002 ft | 588 kts | 54° |
| 2026-05-05 05:50 | 37.09054 | -110.70870 | 32995 ft | 585 kts | 55° |
| 2026-05-05 05:51 | 37.13794 | -110.62742 | 32981 ft | 586 kts | 54° |
| 2026-05-05 05:51 | 37.18568 | -110.54534 | 32974 ft | 588 kts | 54° |
| 2026-05-05 05:52 | 37.23382 | -110.46240 | 32962 ft | 586 kts | 54° |
| 2026-05-05 05:52 | 37.28173 | -110.37965 | 32968 ft | 590 kts | 54° |
| 2026-05-05 05:53 | 37.32913 | -110.29756 | 32967 ft | 589 kts | 54° |
| 2026-05-05 05:53 | 37.37712 | -110.21425 | 32985 ft | 590 kts | 53° |
| 2026-05-05 05:54 | 37.42556 | -110.12996 | 33001 ft | 587 kts | 55° |
| 2026-05-05 05:54 | 37.47343 | -110.04645 | 33000 ft | 591 kts | 53° |
| 2026-05-05 05:55 | 37.52066 | -109.96259 | 33003 ft | 588 kts | 57° |
| 2026-05-05 05:55 | 37.56617 | -109.87626 | 33009 ft | 593 kts | 56° |
| 2026-05-05 05:56 | 37.61145 | -109.79017 | 33010 ft | 588 kts | 56° |
| 2026-05-05 05:56 | 37.65664 | -109.70420 | 33017 ft | 590 kts | 56° |
| 2026-05-05 05:57 | 37.70202 | -109.61774 | 33015 ft | 591 kts | 55° |
| 2026-05-05 05:57 | 37.74736 | -109.53121 | 33015 ft | 591 kts | 55° |
| 2026-05-05 05:58 | 37.79232 | -109.44522 | 33034 ft | 592 kts | 55° |
| 2026-05-05 05:58 | 37.83781 | -109.35800 | 33028 ft | 591 kts | 55° |
| 2026-05-05 05:59 | 37.88320 | -109.27074 | 33011 ft | 591 kts | 57° |
| 2026-05-05 05:59 | 37.93075 | -109.17910 | 33016 ft | 591 kts | 56° |
| 2026-05-05 06:00 | 37.97650 | -109.09071 | 33038 ft | 591 kts | 57° |
| 2026-05-05 06:00 | 38.02108 | -109.00433 | 33034 ft | 589 kts | 56° |
| 2026-05-05 06:01 | 38.06587 | -108.91732 | 33012 ft | 591 kts | 56° |
| 2026-05-05 06:01 | 38.11078 | -108.82984 | 33014 ft | 590 kts | 55° |
| 2026-05-05 06:02 | 38.15540 | -108.74271 | 33018 ft | 588 kts | 56° |
| 2026-05-05 06:02 | 38.19973 | -108.65590 | 33033 ft | 589 kts | 56° |
| 2026-05-05 06:03 | 38.24419 | -108.56860 | 33064 ft | 589 kts | 55° |
| 2026-05-05 06:03 | 38.28829 | -108.48179 | 33080 ft | 586 kts | 56° |
| 2026-05-05 06:04 | 38.33233 | -108.39486 | 33103 ft | 590 kts | 56° |
| 2026-05-05 06:04 | 38.37682 | -108.30682 | 33091 ft | 588 kts | 57° |
| 2026-05-05 06:05 | 38.42072 | -108.21968 | 33092 ft | 588 kts | 56° |
| 2026-05-05 06:05 | 38.46508 | -108.13140 | 33102 ft | 589 kts | 55° |
| 2026-05-05 06:06 | 38.50900 | -108.04378 | 33090 ft | 589 kts | 56° |
| 2026-05-05 06:06 | 38.55281 | -107.95612 | 33047 ft | 587 kts | 56° |
| 2026-05-05 06:07 | 38.59682 | -107.86784 | 33063 ft | 587 kts | 56° |
| 2026-05-05 06:07 | 38.64060 | -107.77976 | 33082 ft | 587 kts | 55° |
| 2026-05-05 06:08 | 38.68415 | -107.69192 | 33154 ft | 590 kts | 56° |
| 2026-05-05 06:08 | 38.72784 | -107.60355 | 33163 ft | 589 kts | 56° |
| 2026-05-05 06:09 | 38.77155 | -107.51489 | 33173 ft | 590 kts | 55° |
| 2026-05-05 06:09 | 38.81491 | -107.42670 | 33179 ft | 590 kts | 56° |
| 2026-05-05 06:10 | 38.85847 | -107.33786 | 33181 ft | 587 kts | 55° |
| 2026-05-05 06:10 | 38.90202 | -107.24882 | 33145 ft | 593 kts | 56° |
| 2026-05-05 06:11 | 38.94538 | -107.15987 | 33149 ft | 589 kts | 56° |
| 2026-05-05 06:11 | 38.99042 | -107.06724 | 33148 ft | 592 kts | 55° |
| 2026-05-05 06:12 | 39.03390 | -106.97758 | 33138 ft | 590 kts | 56° |
| 2026-05-05 06:12 | 39.07752 | -106.88734 | 33126 ft | 593 kts | 56° |
| 2026-05-05 06:13 | 39.12107 | -106.79701 | 33104 ft | 591 kts | 56° |
| 2026-05-05 06:13 | 39.16451 | -106.70667 | 33103 ft | 591 kts | 56° |
| 2026-05-05 06:14 | 39.20772 | -106.61651 | 33109 ft | 593 kts | 54° |
| 2026-05-05 06:14 | 39.25120 | -106.52555 | 33096 ft | 590 kts | 54° |
| 2026-05-05 06:15 | 39.29419 | -106.43539 | 33117 ft | 596 kts | 54° |
| 2026-05-05 06:15 | 39.33765 | -106.34392 | 33119 ft | 590 kts | 55° |
| 2026-05-05 06:16 | 39.38094 | -106.25260 | 33103 ft | 598 kts | 55° |
| 2026-05-05 06:16 | 39.42444 | -106.16052 | 33092 ft | 592 kts | 54° |
| 2026-05-05 06:17 | 39.46729 | -106.06959 | 33084 ft | 593 kts | 54° |
| 2026-05-05 06:17 | 39.51007 | -105.97842 | 33088 ft | 596 kts | 54° |
| 2026-05-05 06:18 | 39.55201 | -105.88683 | 33090 ft | 593 kts | 55° |
| 2026-05-05 06:18 | 39.59370 | -105.79539 | 33084 ft | 594 kts | 55° |
| 2026-05-05 06:19 | 39.63527 | -105.70401 | 33070 ft | 592 kts | 54° |
| 2026-05-05 06:19 | 39.67657 | -105.61299 | 33058 ft | 591 kts | 54° |
| 2026-05-05 06:20 | 39.71823 | -105.52095 | 33058 ft | 592 kts | 54° |
| 2026-05-05 06:20 | 39.75969 | -105.42907 | 33042 ft | 590 kts | 55° |
| 2026-05-05 06:21 | 39.80114 | -105.33697 | 33018 ft | 592 kts | 55° |
| 2026-05-05 06:21 | 39.84232 | -105.24515 | 32967 ft | 588 kts | 55° |
| 2026-05-05 06:22 | 39.88361 | -105.15287 | 32942 ft | 588 kts | 56° |
| 2026-05-05 06:22 | 39.92438 | -105.06148 | 32953 ft | 587 kts | 55° |
| 2026-05-05 06:23 | 39.96500 | -104.97012 | 32960 ft | 585 kts | 54° |
| 2026-05-05 06:23 | 40.00570 | -104.87837 | 32969 ft | 587 kts | 56° |
| 2026-05-05 06:24 | 40.04646 | -104.78617 | 32965 ft | 587 kts | 56° |
| 2026-05-05 06:24 | 40.08687 | -104.69446 | 32967 ft | 581 kts | 56° |
| 2026-05-05 06:25 | 40.12735 | -104.60238 | 32973 ft | 583 kts | 55° |
| 2026-05-05 06:25 | 40.16722 | -104.51136 | 32971 ft | 579 kts | 55° |
| 2026-05-05 06:26 | 40.20717 | -104.41993 | 32982 ft | 578 kts | 56° |
| 2026-05-05 06:26 | 40.24678 | -104.32898 | 32960 ft | 579 kts | 56° |
| 2026-05-05 06:27 | 40.30628 | -104.19187 | 32962 ft | 575 kts | 56° |
| 2026-05-05 06:28 | 40.34582 | -104.10043 | 32964 ft | 576 kts | 56° |
| 2026-05-05 06:28 | 40.38490 | -104.00976 | 32963 ft | 570 kts | 56° |
| 2026-05-05 06:29 | 40.42385 | -103.91916 | 32971 ft | 575 kts | 56° |
| 2026-05-05 06:29 | 40.46291 | -103.82797 | 32981 ft | 569 kts | 56° |
| 2026-05-05 06:30 | 40.50147 | -103.73773 | 32966 ft | 574 kts | 56° |
| 2026-05-05 06:30 | 40.54065 | -103.64574 | 32964 ft | 572 kts | 56° |
| 2026-05-05 06:31 | 40.57918 | -103.55499 | 32972 ft | 569 kts | 56° |
| 2026-05-05 06:31 | 40.61783 | -103.46374 | 32964 ft | 571 kts | 56° |
| 2026-05-05 06:32 | 40.65622 | -103.37277 | 32974 ft | 571 kts | 56° |
| 2026-05-05 06:32 | 40.69467 | -103.28139 | 32952 ft | 569 kts | 57° |
| 2026-05-05 06:33 | 40.73299 | -103.19009 | 32959 ft | 571 kts | 57° |
| 2026-05-05 06:33 | 40.77113 | -103.09891 | 32968 ft | 569 kts | 56° |
| 2026-05-05 06:34 | 40.80936 | -103.00725 | 32970 ft | 573 kts | 56° |
| 2026-05-05 06:34 | 40.84732 | -102.91592 | 32958 ft | 569 kts | 57° |
| 2026-05-05 06:35 | 40.88526 | -102.82436 | 32958 ft | 568 kts | 56° |
| 2026-05-05 06:35 | 40.92298 | -102.73309 | 32949 ft | 569 kts | 57° |
| 2026-05-05 06:36 | 40.96072 | -102.64149 | 32937 ft | 566 kts | 56° |
| 2026-05-05 06:36 | 40.99833 | -102.54993 | 32940 ft | 569 kts | 57° |
| 2026-05-05 06:37 | 41.03580 | -102.45841 | 32953 ft | 567 kts | 57° |
| 2026-05-05 06:37 | 41.07302 | -102.36719 | 32948 ft | 561 kts | 57° |
| 2026-05-05 06:38 | 41.11028 | -102.27567 | 32938 ft | 564 kts | 57° |
| 2026-05-05 06:38 | 41.14711 | -102.18484 | 32926 ft | 560 kts | 57° |
| 2026-05-05 06:39 | 41.18417 | -102.09326 | 32930 ft | 566 kts | 57° |
| 2026-05-05 06:39 | 41.22110 | -102.00164 | 32943 ft | 560 kts | 57° |
| 2026-05-05 06:40 | 41.25796 | -101.90995 | 32942 ft | 560 kts | 57° |
| 2026-05-05 06:40 | 41.29428 | -101.81934 | 32958 ft | 561 kts | 57° |
| 2026-05-05 06:41 | 41.33099 | -101.72743 | 32952 ft | 559 kts | 57° |
| 2026-05-05 06:41 | 41.36705 | -101.63686 | 32943 ft | 555 kts | 57° |
| 2026-05-05 06:42 | 41.40336 | -101.54542 | 32977 ft | 557 kts | 58° |
| 2026-05-05 06:42 | 41.43932 | -101.45457 | 32935 ft | 557 kts | 57° |
| 2026-05-05 06:43 | 41.47518 | -101.36367 | 32983 ft | 554 kts | 57° |
| 2026-05-05 06:43 | 41.51089 | -101.27288 | 32962 ft | 555 kts | 58° |
| 2026-05-05 06:44 | 41.54661 | -101.18179 | 32924 ft | 552 kts | 58° |
| 2026-05-05 06:44 | 41.58225 | -101.09061 | 32940 ft | 554 kts | 58° |
| 2026-05-05 06:45 | 41.61757 | -100.99998 | 32941 ft | 553 kts | 58° |
| 2026-05-05 06:45 | 41.65296 | -100.90886 | 32929 ft | 550 kts | 59° |
| 2026-05-05 06:46 | 41.68835 | -100.81749 | 32910 ft | 553 kts | 58° |
| 2026-05-05 06:46 | 41.72341 | -100.72667 | 32911 ft | 551 kts | 58° |
| 2026-05-05 06:47 | 41.75855 | -100.63535 | 32913 ft | 552 kts | 59° |
| 2026-05-05 06:47 | 41.79346 | -100.54436 | 32939 ft | 553 kts | 59° |
| 2026-05-05 06:48 | 41.82848 | -100.45280 | 32946 ft | 552 kts | 58° |
| 2026-05-05 06:48 | 41.86338 | -100.36121 | 32945 ft | 549 kts | 59° |
| 2026-05-05 06:49 | 41.89799 | -100.27013 | 32907 ft | 549 kts | 59° |
| 2026-05-05 06:49 | 41.93268 | -100.17857 | 32928 ft | 554 kts | 59° |
| 2026-05-05 06:50 | 41.96748 | -100.08639 | 32913 ft | 551 kts | 59° |
| 2026-05-05 06:50 | 42.00212 | -99.99437 | 32918 ft | 553 kts | 59° |
| 2026-05-05 06:51 | 42.03617 | -99.90161 | 32912 ft | 553 kts | 60° |
| 2026-05-05 06:51 | 42.07000 | -99.80870 | 32911 ft | 554 kts | 60° |
| 2026-05-05 06:52 | 42.10360 | -99.71619 | 32913 ft | 552 kts | 60° |
| 2026-05-05 06:52 | 42.13747 | -99.62274 | 32913 ft | 557 kts | 60° |
| 2026-05-05 06:53 | 42.17126 | -99.52914 | 32909 ft | 554 kts | 60° |
| 2026-05-05 06:53 | 42.20487 | -99.43578 | 32909 ft | 554 kts | 59° |
| 2026-05-05 06:54 | 42.23824 | -99.34280 | 32906 ft | 556 kts | 60° |
| 2026-05-05 06:54 | 42.27188 | -99.24876 | 32892 ft | 556 kts | 60° |
| 2026-05-05 06:55 | 42.30532 | -99.15495 | 32890 ft | 555 kts | 60° |
| 2026-05-05 06:55 | 42.33866 | -99.06111 | 32899 ft | 557 kts | 60° |
| 2026-05-05 06:56 | 42.37191 | -98.96720 | 32902 ft | 555 kts | 60° |
| 2026-05-05 06:56 | 42.40507 | -98.87327 | 32912 ft | 559 kts | 60° |
| 2026-05-05 06:57 | 42.43846 | -98.77831 | 32906 ft | 556 kts | 60° |
| 2026-05-05 06:57 | 42.47164 | -98.68368 | 32907 ft | 560 kts | 60° |
| 2026-05-05 06:58 | 42.50526 | -98.58869 | 32910 ft | 558 kts | 60° |
| 2026-05-05 06:58 | 42.53876 | -98.49403 | 32917 ft | 559 kts | 59° |
| 2026-05-05 06:59 | 42.57220 | -98.39916 | 32914 ft | 559 kts | 59° |
| 2026-05-05 06:59 | 42.60571 | -98.30373 | 32901 ft | 558 kts | 60° |
| 2026-05-05 07:00 | 42.63901 | -98.20861 | 32902 ft | 560 kts | 60° |